RYR2WA GCTS-GMAD
Flight info
| Callsign | RYR2WA |
|---|---|
| Flight time | 1h 7m |
| Altitude | 36000 |
| Route | KORAL DCT AMLOK A600 TEKNA |
| Aircraft | B738/M-SDE2E3FGHIRWXY/LB1 |
Departure
| Time | 2026-04-23 11:02 |
|---|---|
| Airport | Tenerife Sur Airport (GCTS) |
Arrival
| Time | 2026-04-23 12:10 |
|---|---|
| Airport | Al Massira Airport (GMAD) |
| Time | Latitude | Longitude | Altitude | Speed | Heading |
|---|---|---|---|---|---|
| 2026-04-23 10:40 | 28.04535 | -16.58171 | 225 ft | 0 kts | 338° |
| 2026-04-23 10:54 | 28.04527 | -16.58167 | 225 ft | 3 kts | 338° |
| 2026-04-23 10:54 | 28.04508 | -16.58158 | 225 ft | 3 kts | 338° |
| 2026-04-23 10:54 | 28.04492 | -16.58151 | 225 ft | 2 kts | 336° |
| 2026-04-23 10:54 | 28.04476 | -16.58141 | 225 ft | 3 kts | 302° |
| 2026-04-23 10:55 | 28.04472 | -16.58123 | 224 ft | 3 kts | 256° |
| 2026-04-23 10:55 | 28.04477 | -16.58106 | 225 ft | 1 kts | 248° |
| 2026-04-23 10:55 | 28.04479 | -16.58100 | 223 ft | 1 kts | 248° |
| 2026-04-23 10:57 | 28.04478 | -16.58101 | 223 ft | 1 kts | 248° |
| 2026-04-23 10:58 | 28.04464 | -16.58140 | 223 ft | 10 kts | 247° |
| 2026-04-23 10:58 | 28.04405 | -16.58209 | 223 ft | 14 kts | 178° |
| 2026-04-23 10:58 | 28.04309 | -16.58196 | 222 ft | 14 kts | 210° |
| 2026-04-23 10:58 | 28.04280 | -16.58256 | 222 ft | 14 kts | 249° |
| 2026-04-23 10:59 | 28.04278 | -16.58259 | 222 ft | 14 kts | 249° |
| 2026-04-23 10:59 | 28.04244 | -16.58358 | 223 ft | 13 kts | 248° |
| 2026-04-23 10:59 | 28.04211 | -16.58452 | 222 ft | 13 kts | 248° |
| 2026-04-23 10:59 | 28.04184 | -16.58547 | 222 ft | 12 kts | 254° |
| 2026-04-23 11:00 | 28.04154 | -16.58641 | 219 ft | 14 kts | 248° |
| 2026-04-23 11:00 | 28.04113 | -16.58758 | 215 ft | 18 kts | 248° |
| 2026-04-23 11:00 | 28.04041 | -16.58877 | 212 ft | 9 kts | 180° |
| 2026-04-23 11:00 | 28.04006 | -16.58855 | 208 ft | 10 kts | 138° |
| 2026-04-23 11:01 | 28.03960 | -16.58759 | 207 ft | 16 kts | 101° |
| 2026-04-23 11:01 | 28.03943 | -16.58710 | 206 ft | 5 kts | 105° |
| 2026-04-23 11:01 | 28.03954 | -16.58668 | 195 ft | 5 kts | 68° |
| 2026-04-23 11:01 | 28.03974 | -16.58609 | 206 ft | 14 kts | 69° |
| 2026-04-23 11:02 | 28.04072 | -16.58329 | 193 ft | 72 kts | 68° |
| 2026-04-23 11:02 | 28.04338 | -16.57567 | 192 ft | 133 kts | 68° |
| 2026-04-23 11:02 | 28.04736 | -16.56422 | 299 ft | 172 kts | 68° |
| 2026-04-23 11:02 | 28.05151 | -16.55212 | 1113 ft | 161 kts | 69° |
| 2026-04-23 11:03 | 28.05552 | -16.54014 | 1764 ft | 166 kts | 69° |
| 2026-04-23 11:03 | 28.05987 | -16.52735 | 2199 ft | 185 kts | 68° |
| 2026-04-23 11:03 | 28.06510 | -16.51291 | 2488 ft | 210 kts | 66° |
| 2026-04-23 11:03 | 28.07131 | -16.49682 | 2653 ft | 236 kts | 65° |
| 2026-04-23 11:04 | 28.07804 | -16.47860 | 2973 ft | 260 kts | 69° |
| 2026-04-23 11:04 | 28.08449 | -16.45938 | 3824 ft | 263 kts | 69° |
| 2026-04-23 11:04 | 28.08824 | -16.44104 | 4548 ft | 268 kts | 84° |
| 2026-04-23 11:04 | 28.08952 | -16.41980 | 5384 ft | 273 kts | 86° |
| 2026-04-23 11:05 | 28.09088 | -16.39802 | 6089 ft | 281 kts | 85° |
| 2026-04-23 11:05 | 28.09234 | -16.37564 | 6807 ft | 289 kts | 86° |
| 2026-04-23 11:05 | 28.09387 | -16.35280 | 7555 ft | 293 kts | 86° |
| 2026-04-23 11:05 | 28.09545 | -16.32958 | 8259 ft | 299 kts | 86° |
| 2026-04-23 11:06 | 28.09881 | -16.28182 | 9734 ft | 308 kts | 86° |
| 2026-04-23 11:06 | 28.10056 | -16.25737 | 10324 ft | 318 kts | 86° |
| 2026-04-23 11:06 | 28.10238 | -16.23179 | 10517 ft | 341 kts | 86° |
| 2026-04-23 11:07 | 28.10432 | -16.20463 | 11034 ft | 350 kts | 86° |
| 2026-04-23 11:07 | 28.10631 | -16.17703 | 11734 ft | 353 kts | 86° |
| 2026-04-23 11:07 | 28.10829 | -16.14915 | 12411 ft | 358 kts | 86° |
| 2026-04-23 11:07 | 28.11033 | -16.12081 | 13109 ft | 363 kts | 85° |
| 2026-04-23 11:08 | 28.11240 | -16.09215 | 13872 ft | 367 kts | 85° |
| 2026-04-23 11:08 | 28.11447 | -16.06317 | 14537 ft | 371 kts | 86° |
| 2026-04-23 11:08 | 28.11655 | -16.03382 | 15207 ft | 376 kts | 86° |
| 2026-04-23 11:08 | 28.11755 | -16.00407 | 15889 ft | 380 kts | 92° |
| 2026-04-23 11:09 | 28.11605 | -15.97404 | 16601 ft | 383 kts | 96° |
| 2026-04-23 11:09 | 28.11363 | -15.94382 | 17289 ft | 388 kts | 97° |
| 2026-04-23 11:09 | 28.11101 | -15.91323 | 17931 ft | 393 kts | 97° |
| 2026-04-23 11:09 | 28.10848 | -15.88221 | 18558 ft | 398 kts | 97° |
| 2026-04-23 11:10 | 28.10608 | -15.85076 | 19161 ft | 402 kts | 97° |
| 2026-04-23 11:10 | 28.10380 | -15.81904 | 19768 ft | 406 kts | 97° |
| 2026-04-23 11:10 | 28.10158 | -15.78701 | 20348 ft | 410 kts | 97° |
| 2026-04-23 11:10 | 28.09938 | -15.75459 | 20890 ft | 415 kts | 97° |
| 2026-04-23 11:11 | 28.09717 | -15.72184 | 21465 ft | 419 kts | 97° |
| 2026-04-23 11:11 | 28.09494 | -15.68874 | 22028 ft | 423 kts | 97° |
| 2026-04-23 11:11 | 28.09265 | -15.65532 | 22599 ft | 428 kts | 97° |
| 2026-04-23 11:11 | 28.09035 | -15.62158 | 23156 ft | 432 kts | 97° |
| 2026-04-23 11:12 | 28.08803 | -15.58754 | 23711 ft | 435 kts | 97° |
| 2026-04-23 11:12 | 28.08569 | -15.55322 | 24131 ft | 440 kts | 97° |
| 2026-04-23 11:12 | 28.08330 | -15.51847 | 24555 ft | 444 kts | 97° |
| 2026-04-23 11:12 | 28.08086 | -15.48348 | 25002 ft | 448 kts | 97° |
| 2026-04-23 11:13 | 28.07984 | -15.44806 | 25408 ft | 455 kts | 85° |
| 2026-04-23 11:13 | 28.08745 | -15.41309 | 25797 ft | 461 kts | 66° |
| 2026-04-23 11:13 | 28.10333 | -15.38163 | 26258 ft | 461 kts | 54° |
| 2026-04-23 11:13 | 28.12142 | -15.35148 | 26683 ft | 464 kts | 53° |
| 2026-04-23 11:14 | 28.14000 | -15.32136 | 27058 ft | 469 kts | 53° |
| 2026-04-23 11:14 | 28.15881 | -15.29098 | 27451 ft | 473 kts | 53° |
| 2026-04-23 11:14 | 28.17762 | -15.26036 | 27870 ft | 475 kts | 53° |
| 2026-04-23 11:14 | 28.19645 | -15.22938 | 28279 ft | 478 kts | 53° |
| 2026-04-23 11:15 | 28.21528 | -15.19814 | 28680 ft | 482 kts | 53° |
| 2026-04-23 11:15 | 28.23417 | -15.16664 | 29057 ft | 485 kts | 53° |
| 2026-04-23 11:15 | 28.25312 | -15.13486 | 29413 ft | 488 kts | 53° |
| 2026-04-23 11:15 | 28.27218 | -15.10284 | 29779 ft | 491 kts | 53° |
| 2026-04-23 11:16 | 28.29133 | -15.07057 | 30136 ft | 494 kts | 53° |
| 2026-04-23 11:16 | 28.31059 | -15.03813 | 30429 ft | 498 kts | 53° |
| 2026-04-23 11:16 | 28.32998 | -15.00548 | 30728 ft | 500 kts | 53° |
| 2026-04-23 11:16 | 28.34948 | -14.97264 | 31010 ft | 503 kts | 53° |
| 2026-04-23 11:17 | 28.36905 | -14.93964 | 31273 ft | 506 kts | 53° |
| 2026-04-23 11:17 | 28.38877 | -14.90635 | 31507 ft | 509 kts | 53° |
| 2026-04-23 11:17 | 28.40861 | -14.87288 | 31743 ft | 512 kts | 53° |
| 2026-04-23 11:17 | 28.42854 | -14.83923 | 32038 ft | 515 kts | 53° |
| 2026-04-23 11:18 | 28.44854 | -14.80543 | 32341 ft | 516 kts | 53° |
| 2026-04-23 11:18 | 28.46855 | -14.77156 | 32637 ft | 517 kts | 53° |
| 2026-04-23 11:18 | 28.48860 | -14.73761 | 32950 ft | 518 kts | 53° |
| 2026-04-23 11:18 | 28.50837 | -14.70407 | 33301 ft | 518 kts | 53° |
| 2026-04-23 11:19 | 28.52840 | -14.67008 | 33671 ft | 517 kts | 53° |
| 2026-04-23 11:19 | 28.54840 | -14.63613 | 34011 ft | 517 kts | 53° |
| 2026-04-23 11:19 | 28.56843 | -14.60210 | 34259 ft | 518 kts | 53° |
| 2026-04-23 11:19 | 28.58851 | -14.56798 | 34442 ft | 521 kts | 53° |
| 2026-04-23 11:20 | 28.60871 | -14.53360 | 34602 ft | 524 kts | 53° |
| 2026-04-23 11:20 | 28.62900 | -14.49907 | 34808 ft | 526 kts | 53° |
| 2026-04-23 11:20 | 28.64934 | -14.46443 | 35036 ft | 527 kts | 53° |
| 2026-04-23 11:20 | 28.66973 | -14.42967 | 35221 ft | 529 kts | 53° |
| 2026-04-23 11:21 | 28.69021 | -14.39471 | 35400 ft | 531 kts | 53° |
| 2026-04-23 11:21 | 28.71073 | -14.35967 | 35603 ft | 533 kts | 53° |
| 2026-04-23 11:21 | 28.73131 | -14.32445 | 35815 ft | 534 kts | 53° |
| 2026-04-23 11:21 | 28.75193 | -14.28916 | 35995 ft | 536 kts | 53° |
| 2026-04-23 11:22 | 28.77264 | -14.25367 | 36076 ft | 540 kts | 54° |
| 2026-04-23 11:22 | 28.81434 | -14.18212 | 36069 ft | 540 kts | 54° |
| 2026-04-23 11:23 | 28.85549 | -14.11138 | 36062 ft | 532 kts | 54° |
| 2026-04-23 11:23 | 28.89637 | -14.04103 | 36089 ft | 532 kts | 54° |
| 2026-04-23 11:24 | 28.93726 | -13.97056 | 36079 ft | 533 kts | 54° |
| 2026-04-23 11:24 | 28.97816 | -13.89999 | 36070 ft | 533 kts | 54° |
| 2026-04-23 11:25 | 29.01905 | -13.82927 | 36060 ft | 534 kts | 54° |
| 2026-04-23 11:25 | 29.05971 | -13.75880 | 36060 ft | 535 kts | 54° |
| 2026-04-23 11:26 | 29.10073 | -13.68772 | 36059 ft | 536 kts | 54° |
| 2026-04-23 11:26 | 29.14171 | -13.61644 | 36094 ft | 537 kts | 54° |
| 2026-04-23 11:27 | 29.18274 | -13.54496 | 36063 ft | 537 kts | 54° |
| 2026-04-23 11:27 | 29.22363 | -13.47360 | 36063 ft | 536 kts | 54° |
| 2026-04-23 11:28 | 29.26452 | -13.40217 | 36069 ft | 535 kts | 54° |
| 2026-04-23 11:28 | 29.30522 | -13.33091 | 36071 ft | 534 kts | 54° |
| 2026-04-23 11:29 | 29.34582 | -13.25968 | 36070 ft | 533 kts | 54° |
| 2026-04-23 11:29 | 29.38629 | -13.18864 | 36073 ft | 532 kts | 54° |
| 2026-04-23 11:30 | 29.42660 | -13.11768 | 36044 ft | 531 kts | 54° |
| 2026-04-23 11:30 | 29.46688 | -13.04669 | 36069 ft | 531 kts | 54° |
| 2026-04-23 11:31 | 29.50713 | -12.97562 | 36072 ft | 531 kts | 54° |
| 2026-04-23 11:31 | 29.54735 | -12.90446 | 36074 ft | 531 kts | 55° |
| 2026-04-23 11:32 | 29.58753 | -12.83327 | 36068 ft | 531 kts | 55° |
| 2026-04-23 11:32 | 29.62764 | -12.76203 | 36057 ft | 531 kts | 55° |
| 2026-04-23 11:33 | 29.66747 | -12.69125 | 36070 ft | 531 kts | 55° |
| 2026-04-23 11:33 | 29.70754 | -12.61989 | 36072 ft | 531 kts | 55° |
| 2026-04-23 11:33 | 29.72521 | -12.58258 | 36045 ft | 533 kts | 70° |
| 2026-04-23 11:34 | 29.73431 | -12.54153 | 36079 ft | 528 kts | 87° |
| 2026-04-23 11:34 | 29.73799 | -12.45745 | 36067 ft | 527 kts | 92° |
| 2026-04-23 11:35 | 29.74021 | -12.37319 | 36056 ft | 528 kts | 91° |
| 2026-04-23 11:35 | 29.74308 | -12.28871 | 36062 ft | 529 kts | 91° |
| 2026-04-23 11:36 | 29.74648 | -12.20416 | 36066 ft | 530 kts | 91° |
| 2026-04-23 11:36 | 29.75000 | -12.11937 | 36080 ft | 531 kts | 91° |
| 2026-04-23 11:37 | 29.75340 | -12.03441 | 36057 ft | 532 kts | 91° |
| 2026-04-23 11:37 | 29.75673 | -11.94939 | 36063 ft | 532 kts | 91° |
| 2026-04-23 11:38 | 29.75998 | -11.86439 | 36072 ft | 531 kts | 91° |
| 2026-04-23 11:38 | 29.76316 | -11.77989 | 36041 ft | 519 kts | 91° |
| 2026-04-23 11:38 | 29.76471 | -11.73897 | 36040 ft | 504 kts | 91° |
| 2026-04-23 11:39 | 29.76621 | -11.69920 | 36041 ft | 491 kts | 91° |
| 2026-04-23 11:39 | 29.76764 | -11.66047 | 36038 ft | 478 kts | 91° |
| 2026-04-23 11:39 | 29.76902 | -11.62264 | 36048 ft | 470 kts | 91° |
| 2026-04-23 11:40 | 29.77165 | -11.54733 | 36078 ft | 474 kts | 91° |
| 2026-04-23 11:40 | 29.77429 | -11.47070 | 36077 ft | 483 kts | 91° |
| 2026-04-23 11:41 | 29.77696 | -11.39323 | 36081 ft | 486 kts | 91° |
| 2026-04-23 11:41 | 29.77963 | -11.31561 | 36041 ft | 482 kts | 91° |
| 2026-04-23 11:42 | 29.78220 | -11.23935 | 35537 ft | 477 kts | 91° |
| 2026-04-23 11:42 | 29.78345 | -11.20094 | 34857 ft | 484 kts | 91° |
| 2026-04-23 11:42 | 29.78471 | -11.16211 | 34334 ft | 486 kts | 91° |
| 2026-04-23 11:42 | 29.78597 | -11.12342 | 34014 ft | 482 kts | 90° |
| 2026-04-23 11:43 | 29.78724 | -11.08515 | 33736 ft | 475 kts | 90° |
| 2026-04-23 11:43 | 29.78846 | -11.04732 | 33409 ft | 471 kts | 91° |
| 2026-04-23 11:43 | 29.78925 | -11.02243 | 33158 ft | 469 kts | 91° |
| 2026-04-23 11:43 | 29.79079 | -10.97295 | 32666 ft | 465 kts | 91° |
| 2026-04-23 11:44 | 29.79195 | -10.93591 | 32287 ft | 461 kts | 90° |
| 2026-04-23 11:44 | 29.79308 | -10.89913 | 31935 ft | 458 kts | 90° |
| 2026-04-23 11:44 | 29.79419 | -10.86263 | 31600 ft | 455 kts | 90° |
| 2026-04-23 11:44 | 29.79528 | -10.82639 | 31277 ft | 451 kts | 91° |
| 2026-04-23 11:45 | 29.79635 | -10.79047 | 30945 ft | 448 kts | 90° |
| 2026-04-23 11:45 | 29.79741 | -10.75478 | 30622 ft | 445 kts | 90° |
| 2026-04-23 11:45 | 29.79812 | -10.73074 | 30399 ft | 443 kts | 90° |
| 2026-04-23 11:45 | 29.79914 | -10.69593 | 30090 ft | 440 kts | 91° |
| 2026-04-23 11:46 | 29.80015 | -10.66092 | 29714 ft | 436 kts | 91° |
| 2026-04-23 11:46 | 29.80115 | -10.62616 | 29356 ft | 432 kts | 91° |
| 2026-04-23 11:46 | 29.80213 | -10.59168 | 28998 ft | 429 kts | 91° |
| 2026-04-23 11:46 | 29.80309 | -10.55756 | 28630 ft | 425 kts | 90° |
| 2026-04-23 11:47 | 29.80404 | -10.52368 | 28288 ft | 421 kts | 90° |
| 2026-04-23 11:47 | 29.80498 | -10.49012 | 27934 ft | 418 kts | 90° |
| 2026-04-23 11:47 | 29.80589 | -10.45681 | 27588 ft | 414 kts | 90° |
| 2026-04-23 11:47 | 29.80680 | -10.42380 | 27245 ft | 411 kts | 90° |
| 2026-04-23 11:48 | 29.80768 | -10.39101 | 26908 ft | 408 kts | 90° |
| 2026-04-23 11:48 | 29.80853 | -10.35849 | 26585 ft | 405 kts | 90° |
| 2026-04-23 11:48 | 29.80939 | -10.32625 | 26264 ft | 401 kts | 90° |
| 2026-04-23 11:48 | 29.81023 | -10.29425 | 25948 ft | 398 kts | 90° |
| 2026-04-23 11:49 | 29.81104 | -10.26255 | 25620 ft | 394 kts | 90° |
| 2026-04-23 11:49 | 29.81183 | -10.23107 | 25289 ft | 392 kts | 91° |
| 2026-04-23 11:49 | 29.81236 | -10.19981 | 24982 ft | 389 kts | 90° |
| 2026-04-23 11:49 | 29.81322 | -10.16883 | 24696 ft | 385 kts | 90° |
| 2026-04-23 11:50 | 29.81412 | -10.13811 | 24389 ft | 383 kts | 90° |
| 2026-04-23 11:50 | 29.81493 | -10.10762 | 24117 ft | 379 kts | 90° |
| 2026-04-23 11:50 | 29.81568 | -10.07739 | 23796 ft | 377 kts | 90° |
| 2026-04-23 11:50 | 29.81681 | -10.04728 | 23447 ft | 376 kts | 84° |
| 2026-04-23 11:51 | 29.82403 | -10.01848 | 23064 ft | 376 kts | 64° |
| 2026-04-23 11:51 | 29.83846 | -9.99360 | 22709 ft | 373 kts | 48° |
| 2026-04-23 11:51 | 29.85578 | -9.97153 | 22372 ft | 370 kts | 46° |
| 2026-04-23 11:51 | 29.87324 | -9.94978 | 21986 ft | 370 kts | 46° |
| 2026-04-23 11:52 | 29.89066 | -9.92803 | 21629 ft | 368 kts | 47° |
| 2026-04-23 11:52 | 29.90790 | -9.90629 | 21296 ft | 366 kts | 47° |
| 2026-04-23 11:52 | 29.92495 | -9.88460 | 20960 ft | 365 kts | 47° |
| 2026-04-23 11:52 | 29.94190 | -9.86292 | 20618 ft | 362 kts | 47° |
| 2026-04-23 11:53 | 29.95860 | -9.84148 | 20162 ft | 357 kts | 47° |
| 2026-04-23 11:53 | 29.97519 | -9.82015 | 19563 ft | 357 kts | 48° |
| 2026-04-23 11:53 | 29.99179 | -9.79880 | 19010 ft | 357 kts | 48° |
| 2026-04-23 11:53 | 30.00809 | -9.77784 | 18529 ft | 354 kts | 48° |
| 2026-04-23 11:54 | 30.02447 | -9.75676 | 18011 ft | 352 kts | 48° |
| 2026-04-23 11:54 | 30.04076 | -9.73580 | 17496 ft | 349 kts | 48° |
| 2026-04-23 11:54 | 30.05722 | -9.71533 | 16956 ft | 347 kts | 46° |
| 2026-04-23 11:54 | 30.07378 | -9.69519 | 16449 ft | 344 kts | 46° |
| 2026-04-23 11:55 | 30.09022 | -9.67522 | 15914 ft | 342 kts | 46° |
| 2026-04-23 11:55 | 30.10652 | -9.65533 | 15435 ft | 340 kts | 47° |
| 2026-04-23 11:55 | 30.12269 | -9.63552 | 14952 ft | 338 kts | 47° |
| 2026-04-23 11:55 | 30.13872 | -9.61585 | 14489 ft | 335 kts | 47° |
| 2026-04-23 11:56 | 30.15389 | -9.59560 | 13992 ft | 332 kts | 59° |
| 2026-04-23 11:56 | 30.16281 | -9.57138 | 13484 ft | 325 kts | 79° |
| 2026-04-23 11:56 | 30.16646 | -9.54593 | 13006 ft | 319 kts | 87° |
| 2026-04-23 11:56 | 30.16867 | -9.52057 | 12517 ft | 315 kts | 88° |
| 2026-04-23 11:57 | 30.17059 | -9.49545 | 12120 ft | 312 kts | 88° |
| 2026-04-23 11:57 | 30.17244 | -9.47024 | 12058 ft | 316 kts | 88° |
| 2026-04-23 11:57 | 30.17427 | -9.44506 | 11965 ft | 313 kts | 88° |
| 2026-04-23 11:57 | 30.17609 | -9.42011 | 11887 ft | 311 kts | 88° |
| 2026-04-23 11:58 | 30.17788 | -9.39529 | 11542 ft | 311 kts | 89° |
| 2026-04-23 11:58 | 30.17964 | -9.37037 | 11061 ft | 311 kts | 88° |
| 2026-04-23 11:58 | 30.18139 | -9.34546 | 10542 ft | 311 kts | 88° |
| 2026-04-23 11:58 | 30.18309 | -9.32067 | 10074 ft | 308 kts | 88° |
| 2026-04-23 11:59 | 30.18474 | -9.29610 | 9609 ft | 305 kts | 88° |
| 2026-04-23 11:59 | 30.18560 | -9.27185 | 9134 ft | 299 kts | 96° |
| 2026-04-23 11:59 | 30.18379 | -9.24807 | 8649 ft | 296 kts | 98° |
| 2026-04-23 11:59 | 30.18180 | -9.22457 | 8191 ft | 292 kts | 98° |
| 2026-04-23 12:00 | 30.17976 | -9.20132 | 7728 ft | 289 kts | 98° |
| 2026-04-23 12:00 | 30.17768 | -9.17831 | 7269 ft | 287 kts | 98° |
| 2026-04-23 12:00 | 30.17553 | -9.15557 | 6820 ft | 283 kts | 98° |
| 2026-04-23 12:00 | 30.17332 | -9.13310 | 6379 ft | 280 kts | 98° |
| 2026-04-23 12:01 | 30.17110 | -9.11087 | 5895 ft | 277 kts | 98° |
| 2026-04-23 12:01 | 30.16878 | -9.08884 | 5433 ft | 275 kts | 97° |
| 2026-04-23 12:01 | 30.16629 | -9.06714 | 5027 ft | 271 kts | 98° |
| 2026-04-23 12:01 | 30.16457 | -9.04540 | 4938 ft | 278 kts | 86° |
| 2026-04-23 12:02 | 30.17036 | -9.02413 | 4912 ft | 279 kts | 58° |
| 2026-04-23 12:02 | 30.18384 | -9.00844 | 4904 ft | 276 kts | 31° |
| 2026-04-23 12:02 | 30.20186 | -9.00168 | 4890 ft | 274 kts | 4° |
| 2026-04-23 12:02 | 30.22059 | -9.00504 | 4913 ft | 277 kts | 338° |
| 2026-04-23 12:03 | 30.23691 | -9.01689 | 4919 ft | 278 kts | 320° |
| 2026-04-23 12:03 | 30.25137 | -9.03140 | 4908 ft | 269 kts | 319° |
| 2026-04-23 12:03 | 30.26462 | -9.04487 | 4906 ft | 245 kts | 319° |
| 2026-04-23 12:03 | 30.27686 | -9.05711 | 4869 ft | 222 kts | 320° |
| 2026-04-23 12:04 | 30.28817 | -9.06849 | 4898 ft | 213 kts | 319° |
| 2026-04-23 12:04 | 30.29933 | -9.07962 | 4900 ft | 212 kts | 320° |
| 2026-04-23 12:04 | 30.30992 | -9.09136 | 4901 ft | 211 kts | 301° |
| 2026-04-23 12:04 | 30.31367 | -9.10742 | 4926 ft | 209 kts | 272° |
| 2026-04-23 12:05 | 30.31524 | -9.12448 | 4742 ft | 219 kts | 277° |
| 2026-04-23 12:05 | 30.31670 | -9.14199 | 4457 ft | 218 kts | 271° |
| 2026-04-23 12:05 | 30.31702 | -9.15941 | 4178 ft | 215 kts | 270° |
| 2026-04-23 12:05 | 30.31728 | -9.17663 | 3891 ft | 213 kts | 270° |
| 2026-04-23 12:06 | 30.31761 | -9.19358 | 3620 ft | 209 kts | 270° |
| 2026-04-23 12:06 | 30.31798 | -9.21032 | 3351 ft | 207 kts | 271° |
| 2026-04-23 12:06 | 30.31872 | -9.24326 | 2793 ft | 203 kts | 271° |
| 2026-04-23 12:07 | 30.31908 | -9.25946 | 2514 ft | 200 kts | 271° |
| 2026-04-23 12:07 | 30.31944 | -9.27544 | 2259 ft | 197 kts | 271° |
| 2026-04-23 12:07 | 30.31979 | -9.29094 | 2003 ft | 187 kts | 271° |
| 2026-04-23 12:07 | 30.32015 | -9.30565 | 1763 ft | 178 kts | 270° |
| 2026-04-23 12:08 | 30.32046 | -9.31953 | 1561 ft | 164 kts | 271° |
| 2026-04-23 12:08 | 30.32074 | -9.33234 | 1305 ft | 154 kts | 271° |
| 2026-04-23 12:08 | 30.32102 | -9.34460 | 1113 ft | 151 kts | 271° |
| 2026-04-23 12:08 | 30.32128 | -9.35673 | 904 ft | 153 kts | 271° |
| 2026-04-23 12:09 | 30.32168 | -9.36894 | 709 ft | 151 kts | 271° |
| 2026-04-23 12:09 | 30.32183 | -9.38118 | 519 ft | 151 kts | 273° |
| 2026-04-23 12:09 | 30.32220 | -9.39324 | 323 ft | 149 kts | 272° |
| 2026-04-23 12:09 | 30.32245 | -9.40456 | 235 ft | 132 kts | 272° |
| 2026-04-23 12:10 | 30.32267 | -9.41366 | 230 ft | 76 kts | 272° |
| 2026-04-23 12:10 | 30.32278 | -9.41714 | 230 ft | 32 kts | 272° |
| 2026-04-23 12:10 | 30.32346 | -9.41950 | 230 ft | 30 kts | 298° |
| 2026-04-23 12:10 | 30.32436 | -9.42128 | 230 ft | 11 kts | 301° |
| 2026-04-23 12:11 | 30.32467 | -9.42173 | 230 ft | 3 kts | 343° |
| 2026-04-23 12:11 | 30.32474 | -9.42152 | 230 ft | 4 kts | 93° |
| 2026-04-23 12:11 | 30.32472 | -9.42076 | 230 ft | 16 kts | 91° |
| 2026-04-23 12:11 | 30.32468 | -9.41901 | 230 ft | 27 kts | 91° |
| 2026-04-23 12:12 | 30.32464 | -9.41671 | 230 ft | 28 kts | 91° |
| 2026-04-23 12:12 | 30.32514 | -9.41523 | 230 ft | 19 kts | 6° |
| 2026-04-23 12:12 | 30.32653 | -9.41519 | 230 ft | 20 kts | 1° |
| 2026-04-23 12:12 | 30.32790 | -9.41512 | 230 ft | 19 kts | 3° |
| 2026-04-23 12:13 | 30.32816 | -9.41505 | 230 ft | 7 kts | 34° |
| 2026-04-23 12:14 | 30.32821 | -9.41448 | 232 ft | 8 kts | 94° |
| 2026-04-23 12:14 | 30.32815 | -9.41389 | 230 ft | 7 kts | 96° |
| 2026-04-23 12:14 | 30.32816 | -9.41327 | 230 ft | 11 kts | 89° |
| 2026-04-23 12:14 | 30.32814 | -9.41197 | 230 ft | 20 kts | 91° |
| 2026-04-23 12:15 | 30.32810 | -9.41046 | 230 ft | 18 kts | 92° |
| 2026-04-23 12:15 | 30.32807 | -9.40918 | 230 ft | 11 kts | 88° |
| 2026-04-23 12:15 | 30.32848 | -9.40893 | 232 ft | 7 kts | 2° |
| 2026-04-23 12:15 | 30.32876 | -9.40891 | 230 ft | 0 kts | 3° |
| 2026-04-23 12:19 | 30.32876 | -9.41147 | 251 ft | 0 kts | 278° |